Time;durP1;ratioP1;P1;durP2;ratioP2;P2;SDS_P1;SDS_P2;PMS_P1;PMS_P2;Temp;Humidity;BMP_temperature;BMP_pressure;BME280_temperature;BME280_humidity;BME280_pressure;Samples;Min_cycle;Max_cycle;Signal;HPM_P1;HPM_P2
2022/02/25 00:01:51;;;;;;;1.48;0.90;;;20.70;37.50;;;;;;5114701;28;20048;-74
2022/02/25 00:04:16;;;;;;;1.63;0.70;;;20.70;37.50;;;;;;5114653;28;20055;-74
2022/02/25 00:06:42;;;;;;;0.65;0.65;;;20.70;37.50;;;;;;5115212;28;20388;-74
2022/02/25 00:09:07;;;;;;;0.77;0.68;;;20.70;37.50;;;;;;5114617;28;20059;-73
2022/02/25 00:11:33;;;;;;;2.20;1.00;;;20.70;37.40;;;;;;5113431;28;20051;-74
2022/02/25 00:13:59;;;;;;;0.63;0.63;;;20.70;37.50;;;;;;5114549;28;20499;-74
2022/02/25 00:16:25;;;;;;;1.80;0.63;;;20.70;37.50;;;;;;5114591;28;20407;-74
2022/02/25 00:18:51;;;;;;;0.70;0.70;;;20.60;37.50;;;;;;5113848;28;20078;-74
2022/02/25 00:21:17;;;;;;;1.20;0.90;;;20.60;37.50;;;;;;5114436;28;20046;-73
2022/02/25 00:23:42;;;;;;;1.52;0.85;;;20.60;37.50;;;;;;5114173;28;20051;-73
2022/02/25 00:26:08;;;;;;;1.15;0.70;;;20.60;37.50;;;;;;5114296;28;20055;-74
2022/02/25 00:28:34;;;;;;;1.00;0.80;;;20.60;37.50;;;;;;5114006;28;20138;-74
2022/02/25 00:31:00;;;;;;;0.95;0.80;;;20.60;37.50;;;;;;5114208;28;20089;-73
2022/02/25 00:33:26;;;;;;;2.03;1.02;;;20.60;37.50;;;;;;5114218;28;20047;-73
2022/02/25 00:35:51;;;;;;;0.60;0.57;;;20.60;37.50;;;;;;5114207;28;20513;-74
2022/02/25 00:38:18;;;;;;;0.68;0.68;;;20.60;37.50;;;;;;5114136;28;20054;-74
2022/02/25 00:40:43;;;;;;;1.23;0.90;;;20.60;37.60;;;;;;5114188;28;20083;-74
2022/02/25 00:43:10;;;;;;;0.47;0.47;;;20.60;37.50;;;;;;5095679;28;20101;-74
2022/02/25 00:45:35;;;;;;;0.75;0.70;;;20.60;37.50;;;;;;5114053;28;20052;-74
2022/02/25 00:48:01;;;;;;;1.73;1.10;;;20.60;37.50;;;;;;5113952;28;20381;-73
2022/02/25 00:50:26;;;;;;;1.08;0.85;;;20.60;37.50;;;;;;5112710;28;20052;-73
2022/02/25 00:52:52;;;;;;;3.30;0.85;;;20.60;37.50;;;;;;5113370;28;20139;-73
2022/02/25 00:55:18;;;;;;;0.70;0.70;;;20.60;37.50;;;;;;5113792;28;20368;-74
2022/02/25 00:57:45;;;;;;;1.05;0.65;;;20.60;37.50;;;;;;5113989;28;20390;-73
2022/02/25 01:00:12;;;;;;;2.50;0.60;;;20.60;37.50;;;;;;5113877;28;20058;-74
2022/02/25 01:02:38;;;;;;;0.60;0.60;;;20.60;37.50;;;;;;5111396;28;20442;-74
2022/02/25 01:05:04;;;;;;;1.33;0.88;;;20.60;37.50;;;;;;5112375;28;20062;-74
2022/02/25 01:07:29;;;;;;;0.82;0.70;;;20.60;37.50;;;;;;5113793;28;20060;-73
2022/02/25 01:09:55;;;;;;;0.80;0.80;;;20.60;37.50;;;;;;5113718;28;20052;-74
2022/02/25 01:12:21;;;;;;;0.82;0.65;;;20.60;37.50;;;;;;5095180;28;20139;-73
2022/02/25 01:14:46;;;;;;;0.70;0.60;;;20.60;37.50;;;;;;5113580;28;20048;-74
2022/02/25 01:17:12;;;;;;;1.02;0.60;;;20.60;37.50;;;;;;5095349;28;20188;-74
2022/02/25 01:19:38;;;;;;;0.60;0.60;;;20.60;37.50;;;;;;5113561;28;20051;-74
2022/02/25 01:22:04;;;;;;;0.70;0.60;;;20.60;37.50;;;;;;5113510;28;20051;-74
2022/02/25 01:24:29;;;;;;;0.70;0.70;;;20.60;37.50;;;;;;5113525;28;20530;-74
2022/02/25 01:26:55;;;;;;;1.17;0.70;;;20.60;37.50;;;;;;5113969;28;20051;-73
2022/02/25 01:29:21;;;;;;;0.63;0.63;;;20.60;37.50;;;;;;5110207;28;20075;-74
2022/02/25 01:31:46;;;;;;;0.95;0.63;;;20.60;37.50;;;;;;5113258;28;20046;-73
2022/02/25 01:34:12;;;;;;;1.05;0.60;;;20.60;37.50;;;;;;5095003;28;20052;-74
2022/02/25 01:36:39;;;;;;;0.73;0.63;;;20.60;37.50;;;;;;5093586;28;20052;-73
2022/02/25 01:39:05;;;;;;;1.30;0.60;;;20.60;38.10;;;;;;5113121;28;20082;-73
2022/02/25 01:41:32;;;;;;;0.93;0.77;;;20.60;37.50;;;;;;5113251;28;20071;-74
2022/02/25 01:44:27;;;;;;;1.00;0.75;;;20.60;37.50;;;;;;5113418;28;20051;-74
2022/02/25 01:46:58;;;;;;;0.50;0.50;;;20.60;37.50;;;;;;5113030;28;20548;-74
2022/02/25 01:49:25;;;;;;;1.15;0.90;;;20.60;37.50;;;;;;5113128;28;20043;-74
2022/02/25 01:51:56;;;;;;;0.70;0.70;;;20.60;37.50;;;;;;5112973;28;20048;-74
2022/02/25 01:54:23;;;;;;;0.73;0.60;;;20.60;37.50;;;;;;5113095;28;20055;-73
2022/02/25 01:56:48;;;;;;;0.93;0.60;;;20.60;37.50;;;;;;5112814;28;20043;-73
2022/02/25 01:59:14;;;;;;;1.10;0.80;;;20.60;37.50;;;;;;5112939;28;20126;-74
2022/02/25 02:01:40;;;;;;;1.15;0.90;;;20.60;37.50;;;;;;5113294;28;20533;-74
2022/02/25 02:04:06;;;;;;;0.75;0.68;;;20.60;37.50;;;;;;5115010;28;20541;-74
2022/02/25 02:06:32;;;;;;;0.60;0.52;;;20.60;37.50;;;;;;5116309;28;20130;-73
2022/02/25 02:08:58;;;;;;;1.10;0.68;;;20.60;37.50;;;;;;5116540;28;20123;-74
2022/02/25 02:11:35;;;;;;;1.27;0.60;;;20.60;37.50;;;;;;5116417;28;20075;-74
2022/02/25 02:14:03;;;;;;;1.05;0.60;;;20.60;37.50;;;;;;5116404;28;20124;-74
2022/02/25 02:16:30;;;;;;;0.70;0.70;;;20.60;37.50;;;;;;5098678;28;20474;-73
2022/02/25 02:18:59;;;;;;;0.65;0.50;;;20.60;37.50;;;;;;5116337;28;20122;-74
2022/02/25 02:21:28;;;;;;;0.82;0.80;;;20.60;37.50;;;;;;5116293;28;20050;-73
2022/02/25 02:23:55;;;;;;;0.73;0.60;;;20.60;37.50;;;;;;5116334;28;20104;-74
2022/02/25 02:26:22;;;;;;;0.80;0.57;;;20.60;37.50;;;;;;5116206;28;20521;-73
2022/02/25 02:28:48;;;;;;;2.35;0.73;;;20.60;37.50;;;;;;5096487;28;20044;-74
2022/02/25 02:31:14;;;;;;;1.13;0.77;;;20.60;37.50;;;;;;5116463;28;20501;-74
2022/02/25 02:33:40;;;;;;;0.68;0.63;;;20.60;37.50;;;;;;5114252;28;20078;-73
2022/02/25 02:36:06;;;;;;;0.70;0.70;;;20.60;37.50;;;;;;5116029;28;20444;-74
2022/02/25 02:38:32;;;;;;;0.75;0.75;;;20.60;37.50;;;;;;5115536;28;20056;-73
2022/02/25 02:40:58;;;;;;;0.80;0.80;;;20.60;37.50;;;;;;5116042;28;20085;-73
2022/02/25 02:43:24;;;;;;;0.80;0.80;;;20.60;37.50;;;;;;5115983;28;20131;-73
2022/02/25 02:45:50;;;;;;;0.60;0.55;;;20.60;37.50;;;;;;5115920;28;20138;-74
2022/02/25 02:48:15;;;;;;;1.88;1.00;;;20.60;37.40;;;;;;5115714;28;20055;-74
2022/02/25 02:50:41;;;;;;;1.00;0.73;;;20.60;37.40;;;;;;5115875;28;20059;-74
2022/02/25 02:53:07;;;;;;;0.80;0.70;;;20.60;37.50;;;;;;5115855;28;20134;-73
2022/02/25 02:55:33;;;;;;;0.95;0.82;;;20.60;37.50;;;;;;5114565;28;20044;-74
2022/02/25 02:57:59;;;;;;;0.70;0.70;;;20.60;37.50;;;;;;5097443;28;20522;-74
2022/02/25 03:00:24;;;;;;;1.17;0.77;;;20.60;37.50;;;;;;5115540;28;20109;-73
2022/02/25 03:02:50;;;;;;;0.70;0.50;;;20.60;37.40;;;;;;5097293;28;20053;-73
2022/02/25 03:05:18;;;;;;;0.93;0.60;;;20.60;37.40;;;;;;5115614;28;20062;-73
2022/02/25 03:07:46;;;;;;;0.55;0.55;;;20.60;37.40;;;;;;5115647;28;20086;-73
2022/02/25 03:10:12;;;;;;;0.73;0.63;;;20.60;37.30;;;;;;5115558;28;20047;-74
2022/02/25 03:12:40;;;;;;;1.77;0.85;;;20.60;37.30;;;;;;5097587;28;20089;-73
2022/02/25 03:15:06;;;;;;;0.52;0.50;;;20.60;37.40;;;;;;5115618;28;20056;-73
2022/02/25 03:17:33;;;;;;;0.70;0.70;;;20.60;37.30;;;;;;5115411;28;20081;-73
2022/02/25 03:19:59;;;;;;;0.60;0.60;;;20.70;37.40;;;;;;5115197;28;20047;-73
2022/02/25 03:22:25;;;;;;;0.65;0.60;;;20.70;37.40;;;;;;5097100;28;20087;-73
2022/02/25 03:24:55;;;;;;;0.70;0.60;;;20.70;37.30;;;;;;5097037;28;20083;-73
2022/02/25 03:27:21;;;;;;;1.35;0.80;;;20.70;37.30;;;;;;5115326;28;20177;-74
2022/02/25 03:29:46;;;;;;;1.17;0.82;;;20.70;37.30;;;;;;5096919;28;20142;-74
2022/02/25 03:32:12;;;;;;;0.65;0.55;;;20.70;37.30;;;;;;5115184;28;20539;-73
2022/02/25 03:34:37;;;;;;;1.13;0.60;;;20.70;37.30;;;;;;5115165;28;20039;-74
2022/02/25 03:37:04;;;;;;;1.13;0.70;;;20.70;37.30;;;;;;5115067;28;20059;-74
2022/02/25 03:39:29;;;;;;;0.63;0.60;;;20.70;37.20;;;;;;5115052;28;20079;-74
2022/02/25 03:41:55;;;;;;;0.82;0.60;;;20.80;37.30;;;;;;5115047;28;20113;-73
2022/02/25 03:44:21;;;;;;;0.60;0.60;;;20.80;37.20;;;;;;5115332;28;20052;-74
2022/02/25 03:46:47;;;;;;;0.98;0.77;;;20.80;37.20;;;;;;5096616;28;20043;-73
2022/02/25 03:49:13;;;;;;;0.73;0.50;;;20.80;37.20;;;;;;5115097;28;20130;-74
2022/02/25 03:51:39;;;;;;;1.42;0.60;;;20.90;37.20;;;;;;5114784;28;20044;-74
2022/02/25 03:54:04;;;;;;;1.02;0.60;;;20.90;37.20;;;;;;5114931;28;20159;-73
2022/02/25 03:56:30;;;;;;;1.25;0.88;;;20.80;37.10;;;;;;5115088;28;20130;-73
2022/02/25 03:58:56;;;;;;;0.80;0.70;;;20.90;37.20;;;;;;5115010;28;20043;-73
2022/02/25 04:01:21;;;;;;;0.55;0.55;;;20.90;37.10;;;;;;5114704;28;20552;-74
2022/02/25 04:03:47;;;;;;;0.85;0.70;;;20.90;37.10;;;;;;5114512;28;20587;-74
2022/02/25 04:06:13;;;;;;;0.55;0.55;;;20.90;37.10;;;;;;5115330;28;20048;-74
2022/02/25 04:08:39;;;;;;;1.35;0.80;;;20.90;37.10;;;;;;5114334;28;20419;-74
2022/02/25 04:11:04;;;;;;;0.52;0.52;;;20.90;37.10;;;;;;5095190;28;20047;-74
2022/02/25 04:13:30;;;;;;;0.50;0.50;;;20.90;37.10;;;;;;5114293;28;20047;-73
2022/02/25 04:15:55;;;;;;;0.77;0.70;;;20.90;37.10;;;;;;5115037;28;20062;-73
2022/02/25 04:18:21;;;;;;;1.63;0.55;;;20.90;37.10;;;;;;5114351;28;20043;-74
2022/02/25 04:20:47;;;;;;;1.58;0.90;;;20.90;37.10;;;;;;5114231;28;20051;-74
2022/02/25 04:23:13;;;;;;;0.80;0.60;;;20.90;37.10;;;;;;5113442;28;20130;-73
2022/02/25 04:25:38;;;;;;;1.30;0.80;;;20.90;37.10;;;;;;5095787;28;20083;-74
2022/02/25 04:28:04;;;;;;;0.60;0.60;;;20.90;37.10;;;;;;5094401;28;20040;-73
2022/02/25 04:30:31;;;;;;;0.98;0.65;;;20.90;37.10;;;;;;5095811;28;20615;-74
2022/02/25 04:32:57;;;;;;;1.00;0.77;;;20.90;37.10;;;;;;5114528;28;20683;-74
2022/02/25 04:35:24;;;;;;;0.77;0.73;;;20.90;37.00;;;;;;5112907;28;20047;-74
2022/02/25 04:37:49;;;;;;;0.60;0.60;;;20.90;37.10;;;;;;5114307;28;20043;-73
2022/02/25 04:40:15;;;;;;;0.95;0.60;;;20.90;37.10;;;;;;5095460;28;20067;-74
2022/02/25 04:42:40;;;;;;;0.68;0.57;;;20.90;37.10;;;;;;5114074;28;20093;-73
2022/02/25 04:45:07;;;;;;;1.35;0.63;;;20.90;37.00;;;;;;5114151;28;20066;-73
2022/02/25 04:47:33;;;;;;;1.10;0.70;;;20.90;37.10;;;;;;5113966;28;20052;-74
2022/02/25 04:49:59;;;;;;;0.60;0.45;;;20.90;37.10;;;;;;5113974;28;20063;-74
2022/02/25 04:52:24;;;;;;;0.80;0.73;;;20.90;37.10;;;;;;5113937;28;20185;-74
2022/02/25 04:54:50;;;;;;;0.60;0.60;;;20.90;37.10;;;;;;5113888;28;20192;-74
2022/02/25 04:57:16;;;;;;;1.20;0.65;;;20.80;37.00;;;;;;5113846;28;20067;-74
2022/02/25 04:59:42;;;;;;;1.92;0.68;;;20.80;37.10;;;;;;5113799;28;20055;-74
2022/02/25 05:02:08;;;;;;;1.13;0.70;;;20.90;37.10;;;;;;5078632;28;20392;-74
2022/02/25 05:04:33;;;;;;;0.55;0.50;;;20.80;37.10;;;;;;5114026;28;20051;-73
2022/02/25 05:06:59;;;;;;;0.55;0.55;;;20.80;37.10;;;;;;5113557;28;20093;-74
2022/02/25 05:09:25;;;;;;;1.13;0.77;;;20.80;37.10;;;;;;5113945;28;20487;-73
2022/02/25 05:11:50;;;;;;;1.02;0.73;;;20.80;37.10;;;;;;5094988;28;20051;-74
2022/02/25 05:22:28;;;;;;;0.60;0.60;;;20.80;37.00;;;;;;5113576;28;20071;-74
2022/02/25 05:24:55;;;;;;;0.40;0.40;;;20.80;37.10;;;;;;5113754;28;20108;-74
2022/02/25 05:27:20;;;;;;;0.60;0.60;;;20.80;37.10;;;;;;5113420;28;20499;-73
2022/02/25 05:29:47;;;;;;;0.50;0.50;;;20.80;37.10;;;;;;5113609;28;20090;-74
2022/02/25 05:32:13;;;;;;;0.93;0.77;;;20.80;37.00;;;;;;5113338;28;20395;-74
2022/02/25 05:34:38;;;;;;;1.00;0.63;;;20.80;37.10;;;;;;5113283;28;20052;-73
2022/02/25 05:37:04;;;;;;;1.45;0.75;;;20.80;37.10;;;;;;5113496;28;20054;-73
2022/02/25 05:39:30;;;;;;;0.85;0.50;;;20.80;37.10;;;;;;5093783;28;20120;-73
2022/02/25 05:41:55;;;;;;;0.50;0.47;;;20.80;37.00;;;;;;5094778;28;20126;-74
2022/02/25 05:44:21;;;;;;;1.20;0.82;;;20.80;37.00;;;;;;5095514;28;20112;-74
2022/02/25 05:46:46;;;;;;;0.60;0.60;;;20.80;37.10;;;;;;5113201;28;20069;-73
2022/02/25 05:49:12;;;;;;;1.65;0.70;;;20.80;37.10;;;;;;5113085;28;20051;-74
2022/02/25 05:51:37;;;;;;;1.48;1.00;;;20.80;37.10;;;;;;5112921;28;20108;-74
2022/02/25 05:54:04;;;;;;;0.60;0.60;;;20.80;37.00;;;;;;5113303;28;20075;-74
2022/02/25 05:56:31;;;;;;;0.73;0.70;;;20.80;37.60;;;;;;5110002;28;20051;-74
2022/02/25 05:58:59;;;;;;;0.60;0.60;;;20.80;37.00;;;;;;5112761;28;20537;-74
2022/02/25 06:01:26;;;;;;;0.68;0.50;;;20.80;37.10;;;;;;5112899;28;20048;-73
2022/02/25 06:03:51;;;;;;;0.80;0.70;;;20.80;37.10;;;;;;5093534;28;20054;-74
2022/02/25 06:06:17;;;;;;;0.93;0.55;;;20.80;37.10;;;;;;5112823;28;20043;-73
2022/02/25 06:08:43;;;;;;;0.88;0.57;;;20.80;37.00;;;;;;5112574;28;20058;-74
2022/02/25 06:11:08;;;;;;;1.23;0.77;;;20.80;37.10;;;;;;5094457;28;20491;-73
2022/02/25 06:13:34;;;;;;;1.33;0.60;;;20.80;37.60;;;;;;5113065;28;20138;-74
2022/02/25 06:15:59;;;;;;;0.63;0.60;;;20.80;37.10;;;;;;5112579;28;20085;-74
2022/02/25 06:18:25;;;;;;;1.05;0.93;;;20.80;37.00;;;;;;5112679;28;20077;-74
2022/02/25 06:20:51;;;;;;;0.68;0.60;;;20.80;37.00;;;;;;5112713;28;20057;-74
2022/02/25 06:23:21;;;;;;;0.95;0.70;;;20.80;37.00;;;;;;5112581;28;20048;-74
2022/02/25 06:25:47;;;;;;;0.90;0.70;;;20.80;37.00;;;;;;5112687;28;20547;-74
2022/02/25 06:28:13;;;;;;;1.73;0.82;;;20.80;37.00;;;;;;5093425;28;20044;-74
2022/02/25 06:30:39;;;;;;;1.10;0.60;;;20.80;37.00;;;;;;5092797;28;20103;-73
2022/02/25 06:33:04;;;;;;;1.10;0.77;;;20.80;36.90;;;;;;5094693;28;20082;-74
2022/02/25 06:35:30;;;;;;;1.00;0.60;;;20.90;37.00;;;;;;5112572;28;20051;-73
2022/02/25 06:37:56;;;;;;;0.70;0.57;;;20.80;37.00;;;;;;5112427;28;20070;-73
2022/02/25 06:40:22;;;;;;;1.10;0.52;;;20.80;37.00;;;;;;5112386;28;20060;-74
2022/02/25 06:42:47;;;;;;;1.15;0.60;;;20.90;37.00;;;;;;5094019;28;20100;-73
2022/02/25 06:45:15;;;;;;;1.38;0.85;;;20.90;36.90;;;;;;5112279;28;20067;-74
2022/02/25 06:47:41;;;;;;;0.93;0.57;;;20.90;36.90;;;;;;5112362;28;20043;-74
2022/02/25 06:50:08;;;;;;;2.35;0.80;;;20.90;36.90;;;;;;5114189;28;20143;-73
2022/02/25 06:52:34;;;;;;;0.57;0.50;;;20.90;36.80;;;;;;5097973;28;20144;-73
2022/02/25 06:55:00;;;;;;;1.42;0.77;;;21.00;36.80;;;;;;5114367;28;20083;-73
2022/02/25 06:57:25;;;;;;;0.98;0.70;;;21.00;36.70;;;;;;5115740;28;20048;-73
2022/02/25 06:59:51;;;;;;;1.10;0.70;;;21.00;36.60;;;;;;5115611;28;20542;-74
2022/02/25 07:02:16;;;;;;;0.70;0.52;;;21.10;36.70;;;;;;5116190;28;20475;-73
2022/02/25 07:04:42;;;;;;;0.82;0.77;;;21.10;36.60;;;;;;5115774;28;20112;-73
2022/02/25 07:07:07;;;;;;;1.38;0.70;;;21.10;36.50;;;;;;5115607;28;20116;-73
2022/02/25 07:09:33;;;;;;;1.30;0.85;;;21.20;36.50;;;;;;5114759;28;20053;-73
2022/02/25 07:11:59;;;;;;;0.57;0.52;;;21.20;36.40;;;;;;5115457;28;20048;-73
2022/02/25 07:14:24;;;;;;;1.95;0.55;;;21.20;36.40;;;;;;5112180;28;20462;-74
2022/02/25 07:16:50;;;;;;;1.92;0.90;;;21.20;36.40;;;;;;5096912;28;20059;-73
2022/02/25 07:19:16;;;;;;;0.40;0.40;;;21.20;36.40;;;;;;5115499;28;20056;-73
2022/02/25 07:21:42;;;;;;;0.70;0.70;;;21.10;36.50;;;;;;5097081;28;20050;-73
2022/02/25 07:24:07;;;;;;;1.23;0.55;;;21.10;36.50;;;;;;5115376;28;20411;-73
2022/02/25 07:26:33;;;;;;;0.60;0.55;;;21.10;36.50;;;;;;5096912;28;20496;-73
2022/02/25 07:28:58;;;;;;;1.02;0.70;;;21.10;36.50;;;;;;5095279;28;20052;-73
2022/02/25 07:31:24;;;;;;;0.77;0.60;;;21.10;36.50;;;;;;5115107;28;20054;-73
2022/02/25 07:33:50;;;;;;;0.55;0.55;;;21.10;36.50;;;;;;5095675;28;20051;-73
2022/02/25 07:36:15;;;;;;;0.50;0.50;;;21.10;36.50;;;;;;5096752;28;20399;-73
2022/02/25 07:38:41;;;;;;;0.70;0.60;;;21.10;36.50;;;;;;5114899;28;20130;-73
2022/02/25 07:41:06;;;;;;;1.40;0.73;;;21.10;36.50;;;;;;5114975;28;20082;-74
2022/02/25 07:43:32;;;;;;;1.02;0.70;;;21.20;36.40;;;;;;5112128;28;20063;-73
2022/02/25 07:45:58;;;;;;;1.27;0.80;;;21.30;36.30;;;;;;5114771;28;20047;-73
2022/02/25 07:48:23;;;;;;;0.73;0.50;;;21.30;36.20;;;;;;5095687;28;20140;-73
2022/02/25 07:50:49;;;;;;;0.60;0.40;;;21.40;36.00;;;;;;5114779;28;20043;-74
2022/02/25 07:53:16;;;;;;;0.75;0.60;;;21.50;36.00;;;;;;5096611;28;20056;-74
2022/02/25 07:55:42;;;;;;;1.00;0.88;;;21.60;35.90;;;;;;5114831;28;20104;-73
2022/02/25 07:58:07;;;;;;;0.98;0.70;;;21.60;35.90;;;;;;5096435;28;20056;-73
2022/02/25 08:00:34;;;;;;;1.05;0.73;;;21.60;35.70;;;;;;5114094;28;20094;-74
2022/02/25 08:03:01;;;;;;;0.93;0.70;;;21.70;35.70;;;;;;5114202;28;20054;-74
2022/02/25 08:05:28;;;;;;;0.73;0.50;;;21.70;35.70;;;;;;5096096;28;20377;-73
2022/02/25 08:07:56;;;;;;;1.17;0.70;;;21.60;35.80;;;;;;5114339;28;20487;-73
2022/02/25 08:10:21;;;;;;;0.90;0.60;;;21.50;35.90;;;;;;5114879;28;20104;-74
2022/02/25 08:12:47;;;;;;;1.42;0.70;;;21.40;35.90;;;;;;5095906;28;20044;-73
2022/02/25 08:15:14;;;;;;;0.75;0.60;;;21.40;36.10;;;;;;5114417;28;20047;-74
2022/02/25 08:17:40;;;;;;;0.52;0.40;;;21.30;36.10;;;;;;5114259;28;20047;-73
2022/02/25 08:20:06;;;;;;;1.85;0.93;;;21.30;36.20;;;;;;5114392;28;20044;-74
2022/02/25 08:22:32;;;;;;;1.10;0.90;;;21.20;36.30;;;;;;5096290;28;20043;-74
2022/02/25 08:24:58;;;;;;;1.05;0.70;;;21.20;36.40;;;;;;5114222;28;20085;-74
2022/02/25 08:27:24;;;;;;;1.30;0.73;;;21.20;36.40;;;;;;5114174;28;20052;-73
2022/02/25 08:29:50;;;;;;;0.88;0.70;;;21.10;36.40;;;;;;5114202;28;20080;-73
2022/02/25 08:32:15;;;;;;;0.70;0.50;;;21.10;36.40;;;;;;5113894;28;20051;-73
2022/02/25 08:34:41;;;;;;;0.68;0.63;;;21.10;36.50;;;;;;5114664;28;20506;-73
2022/02/25 08:37:07;;;;;;;1.15;0.70;;;21.10;36.50;;;;;;5114156;28;20062;-73
2022/02/25 08:39:34;;;;;;;0.70;0.50;;;21.10;36.50;;;;;;5112723;28;20175;-73
2022/02/25 08:42:00;;;;;;;0.82;0.52;;;21.10;36.50;;;;;;5095633;28;20097;-73
2022/02/25 08:44:25;;;;;;;1.00;0.80;;;21.10;36.50;;;;;;5114168;28;20479;-74
2022/02/25 08:46:51;;;;;;;0.50;0.50;;;21.00;36.50;;;;;;5113967;28;20079;-73
2022/02/25 08:49:17;;;;;;;1.05;0.75;;;21.10;36.50;;;;;;5113767;28;20043;-73
2022/02/25 08:51:43;;;;;;;0.77;0.60;;;21.10;36.60;;;;;;5113690;28;20050;-73
2022/02/25 08:54:12;;;;;;;1.15;0.50;;;21.00;36.50;;;;;;5113830;28;20063;-73
2022/02/25 08:56:38;;;;;;;0.70;0.50;;;21.10;36.50;;;;;;5113822;28;20048;-73
2022/02/25 08:59:05;;;;;;;0.70;0.50;;;21.10;36.50;;;;;;5094710;28;20070;-73
2022/02/25 09:01:32;;;;;;;0.52;0.50;;;21.10;36.50;;;;;;5113591;28;20449;-74
2022/02/25 09:04:02;;;;;;;1.20;0.52;;;21.10;36.50;;;;;;5113748;28;20056;-74
2022/02/25 09:06:30;;;;;;;0.47;0.47;;;21.10;36.50;;;;;;5095382;28;20062;-73
2022/02/25 09:08:56;;;;;;;1.10;0.60;;;21.10;36.50;;;;;;5113577;28;20134;-74
2022/02/25 09:11:23;;;;;;;0.70;0.70;;;21.10;36.50;;;;;;5113475;28;20542;-73
2022/02/25 09:13:50;;;;;;;1.38;0.60;;;21.00;36.50;;;;;;5111270;28;20052;-73
2022/02/25 09:16:16;;;;;;;0.80;0.65;;;21.10;36.60;;;;;;5113534;28;20100;-73
2022/02/25 09:18:42;;;;;;;0.60;0.60;;;21.00;36.50;;;;;;5093107;28;20128;-73
2022/02/25 09:21:07;;;;;;;1.13;0.68;;;21.00;36.50;;;;;;5113299;28;20062;-73
2022/02/25 09:23:33;;;;;;;0.73;0.57;;;21.00;36.50;;;;;;5093708;28;20052;-73
2022/02/25 09:25:59;;;;;;;1.13;0.85;;;21.00;36.50;;;;;;5095515;28;20142;-73
2022/02/25 09:28:25;;;;;;;1.33;0.70;;;21.00;36.50;;;;;;5113188;28;20063;-74
2022/02/25 09:30:52;;;;;;;0.95;0.70;;;21.10;36.50;;;;;;5113501;28;20055;-73
2022/02/25 09:33:17;;;;;;;1.00;0.90;;;21.10;36.50;;;;;;5113172;28;20083;-73
2022/02/25 09:35:43;;;;;;;0.57;0.57;;;21.10;36.40;;;;;;5094696;28;20079;-73
2022/02/25 09:38:09;;;;;;;1.67;0.82;;;21.20;36.40;;;;;;5113054;28;20100;-73
2022/02/25 09:40:36;;;;;;;1.75;0.90;;;21.20;36.40;;;;;;5112892;28;20088;-73
2022/02/25 09:43:02;;;;;;;1.10;0.70;;;21.20;36.30;;;;;;5112970;28;20059;-73
2022/02/25 09:45:28;;;;;;;1.17;0.77;;;21.20;36.30;;;;;;5094717;28;20101;-73
2022/02/25 09:47:54;;;;;;;1.42;0.82;;;21.20;36.30;;;;;;5112927;28;20078;-73
2022/02/25 09:50:22;;;;;;;0.60;0.60;;;21.20;36.30;;;;;;5112862;28;20052;-73
2022/02/25 09:52:48;;;;;;;2.00;0.70;;;21.20;36.40;;;;;;5113230;28;20518;-73
2022/02/25 09:55:30;;;;;;;1.50;0.75;;;21.10;36.40;;;;;;5077702;28;20051;-73
2022/02/25 09:57:59;;;;;;;1.33;0.80;;;21.10;36.40;;;;;;5112728;28;20411;-73
2022/02/25 10:00:26;;;;;;;2.20;0.88;;;21.10;36.40;;;;;;5112643;28;20518;-73
2022/02/25 10:02:54;;;;;;;0.82;0.70;;;21.10;36.40;;;;;;5112864;28;20484;-73
2022/02/25 10:05:23;;;;;;;0.80;0.60;;;21.10;36.50;;;;;;5112814;28;20089;-73
2022/02/25 10:07:48;;;;;;;1.23;0.70;;;21.10;36.50;;;;;;5113022;28;20059;-73
2022/02/25 10:10:16;;;;;;;0.73;0.60;;;21.10;36.40;;;;;;5112582;28;20063;-73
2022/02/25 10:13:06;;;;;;;0.70;0.60;;;21.10;36.40;;;;;;5077325;28;20048;-73
2022/02/25 10:15:34;;;;;;;1.27;0.80;;;21.20;36.40;;;;;;5111921;28;20043;-73
2022/02/25 10:18:10;;;;;;;0.75;0.75;;;21.20;36.30;;;;;;5110531;28;20120;-73
2022/02/25 10:20:36;;;;;;;1.42;0.70;;;21.20;36.30;;;;;;5112802;28;20048;-73
2022/02/25 10:23:15;;;;;;;0.88;0.80;;;21.20;36.20;;;;;;5111491;28;20062;-73
2022/02/25 10:25:41;;;;;;;1.10;0.63;;;21.20;36.30;;;;;;5096884;28;20084;-73
2022/02/25 10:28:07;;;;;;;2.00;0.90;;;21.20;36.30;;;;;;5115990;28;20051;-73
2022/02/25 10:30:32;;;;;;;1.58;0.70;;;21.20;36.30;;;;;;5116058;28;20054;-73
2022/02/25 10:32:58;;;;;;;0.93;0.63;;;21.10;36.30;;;;;;5116267;28;20461;-73
2022/02/25 10:35:30;;;;;;;1.45;0.55;;;21.10;36.40;;;;;;5097848;28;20071;-73
2022/02/25 10:37:56;;;;;;;0.80;0.80;;;21.10;36.40;;;;;;5115956;28;20051;-73
2022/02/25 10:40:23;;;;;;;1.00;0.70;;;21.10;36.40;;;;;;5116273;28;20051;-73
2022/02/25 10:42:48;;;;;;;1.85;0.80;;;21.10;36.50;;;;;;5115891;28;20105;-73
2022/02/25 10:45:31;;;;;;;0.85;0.80;;;21.10;36.50;;;;;;5115854;28;20059;-73
2022/02/25 10:47:58;;;;;;;2.28;0.85;;;21.10;36.50;;;;;;5115636;28;20491;-73
2022/02/25 10:50:25;;;;;;;0.98;0.82;;;21.10;36.50;;;;;;5114602;28;20052;-73
2022/02/25 10:52:53;;;;;;;0.63;0.50;;;21.10;36.50;;;;;;5115752;28;20055;-73
2022/02/25 10:55:21;;;;;;;1.33;0.80;;;21.10;36.40;;;;;;5115616;28;20067;-73
2022/02/25 10:57:50;;;;;;;1.30;0.70;;;21.10;36.30;;;;;;5115599;28;20055;-73
2022/02/25 11:00:17;;;;;;;1.25;0.75;;;21.20;36.40;;;;;;5097334;28;20120;-73
2022/02/25 11:02:47;;;;;;;0.50;0.50;;;21.20;36.30;;;;;;5096114;28;20491;-73
2022/02/25 11:05:34;;;;;;;1.13;0.70;;;21.20;36.30;;;;;;5115546;28;20100;-73
2022/02/25 11:08:02;;;;;;;1.00;0.70;;;21.20;36.20;;;;;;5115321;28;20052;-73
2022/02/25 11:10:34;;;;;;;0.75;0.75;;;21.20;36.30;;;;;;5115450;28;20074;-73
2022/02/25 11:13:06;;;;;;;1.85;0.85;;;21.20;36.30;;;;;;5115407;28;20052;-73
2022/02/25 11:15:34;;;;;;;0.90;0.75;;;21.20;36.30;;;;;;5115531;28;20082;-73
2022/02/25 11:18:00;;;;;;;0.65;0.65;;;21.20;36.30;;;;;;5079846;28;20407;-73
2022/02/25 11:20:29;;;;;;;0.70;0.70;;;21.10;36.30;;;;;;5115436;28;20054;-73
2022/02/25 11:23:01;;;;;;;1.30;0.90;;;21.20;36.30;;;;;;5115255;28;20050;-73
2022/02/25 11:25:27;;;;;;;0.95;0.75;;;21.20;36.30;;;;;;5096842;28;20051;-73
2022/02/25 11:27:53;;;;;;;1.00;0.50;;;21.20;36.30;;;;;;5114960;28;20058;-73
2022/02/25 11:30:30;;;;;;;1.20;0.73;;;21.20;36.20;;;;;;5097052;28;20430;-73
2022/02/25 11:32:58;;;;;;;1.65;0.80;;;21.30;36.20;;;;;;5097159;28;20383;-73
2022/02/25 11:35:48;;;;;;;1.52;0.80;;;21.30;36.10;;;;;;5096017;28;20411;-73
2022/02/25 11:38:14;;;;;;;1.20;0.95;;;21.30;36.10;;;;;;5114456;28;20059;-73
2022/02/25 11:40:56;;;;;;;1.08;0.90;;;21.40;36.10;;;;;;5115000;28;20043;-73
2022/02/25 11:43:51;;;;;;;1.63;0.75;;;21.40;35.90;;;;;;5114975;28;20052;-73
2022/02/25 11:46:32;;;;;;;1.58;0.70;;;21.40;35.90;;;;;;5114952;28;20048;-73
2022/02/25 11:49:08;;;;;;;1.00;0.88;;;21.50;35.80;;;;;;5114933;28;20437;-73
2022/02/25 11:51:40;;;;;;;1.27;0.75;;;21.50;35.70;;;;;;5113491;28;20048;-73
2022/02/25 11:54:21;;;;;;;1.08;0.70;;;21.50;35.70;;;;;;5114911;28;20051;-73
2022/02/25 11:57:08;;;;;;;1.38;0.70;;;21.50;35.70;;;;;;5079310;28;20062;-73
2022/02/25 11:59:33;;;;;;;0.90;0.70;;;21.50;35.70;;;;;;5114534;28;20059;-73
2022/02/25 12:02:16;;;;;;;1.35;0.90;;;21.50;35.70;;;;;;5114997;28;20039;-73
2022/02/25 12:04:54;;;;;;;0.80;0.80;;;21.60;35.70;;;;;;5113258;28;20062;-73
2022/02/25 12:07:38;;;;;;;0.95;0.60;;;21.60;35.70;;;;;;5114593;28;20142;-73
2022/02/25 12:10:16;;;;;;;1.67;0.82;;;21.50;35.70;;;;;;5114560;28;20138;-73
2022/02/25 12:13:00;;;;;;;1.00;0.70;;;21.50;35.80;;;;;;5114470;28;20509;-73
2022/02/25 12:15:39;;;;;;;1.52;0.75;;;21.40;35.90;;;;;;5114652;28;20052;-73
2022/02/25 12:18:09;;;;;;;1.23;0.70;;;21.40;35.90;;;;;;5096229;28;20507;-73
2022/02/25 12:20:37;;;;;;;1.20;0.70;;;21.40;36.00;;;;;;5096086;28;20503;-73
2022/02/25 12:23:12;;;;;;;0.88;0.85;;;21.30;36.00;;;;;;5096076;28;20055;-73
2022/02/25 12:25:40;;;;;;;1.25;0.93;;;21.30;36.00;;;;;;5079235;28;20051;-73
2022/02/25 12:28:27;;;;;;;2.15;1.00;;;21.30;36.10;;;;;;5114405;28;20513;-73
2022/02/25 12:31:04;;;;;;;1.77;0.82;;;21.30;36.10;;;;;;5112845;28;20076;-73
2022/02/25 12:33:45;;;;;;;2.38;0.70;;;21.20;36.20;;;;;;5113027;28;20044;-73
2022/02/25 12:36:31;;;;;;;0.60;0.60;;;21.20;36.20;;;;;;5114095;28;20108;-73
2022/02/25 12:39:08;;;;;;;1.27;0.77;;;21.20;36.20;;;;;;5113983;28;20074;-73
2022/02/25 12:41:45;;;;;;;1.83;0.73;;;21.20;36.20;;;;;;5114315;28;20067;-73
2022/02/25 12:44:17;;;;;;;0.68;0.63;;;21.20;36.20;;;;;;5095965;28;20055;-73
2022/02/25 12:46:51;;;;;;;0.90;0.73;;;21.20;36.20;;;;;;5113745;28;20112;-73
2022/02/25 12:49:18;;;;;;;0.90;0.65;;;21.20;36.20;;;;;;5113908;28;20052;-73
2022/02/25 12:51:46;;;;;;;0.70;0.70;;;21.20;36.20;;;;;;5113813;28;20040;-73
2022/02/25 12:54:14;;;;;;;1.33;0.65;;;21.20;36.20;;;;;;5095487;28;20079;-73
2022/02/25 12:56:43;;;;;;;0.80;0.73;;;21.20;36.30;;;;;;5113875;28;20043;-73
2022/02/25 12:59:15;;;;;;;1.58;0.80;;;21.20;36.30;;;;;;5113562;28;20090;-73